createdAt,value
2023-03-19T00:02:51.402Z,9.00
2023-03-19T00:08:53.542Z,8.90
2023-03-19T00:14:55.404Z,8.90
2023-03-19T00:20:57.175Z,9.00
2023-03-19T00:26:59.042Z,9.10
2023-03-19T00:33:01.374Z,9.40
2023-03-19T00:39:04.192Z,9.60
2023-03-19T00:45:06.904Z,9.70
2023-03-19T00:51:10.944Z,9.70
2023-03-19T00:57:12.706Z,9.70
2023-03-19T01:03:21.361Z,9.90
2023-03-19T01:09:23.451Z,9.90
2023-03-19T01:15:25.381Z,9.90
2023-03-19T01:21:30.908Z,9.50
2023-03-19T01:27:32.886Z,9.40
2023-03-19T01:33:34.917Z,9.00
2023-03-19T01:39:37.274Z,8.80
2023-03-19T01:45:41.529Z,8.90
2023-03-19T01:51:46.254Z,9.40
2023-03-19T01:57:48.682Z,9.60
2023-03-19T02:03:53.681Z,9.70
2023-03-19T02:09:55.707Z,9.70
2023-03-19T02:15:58.268Z,9.70
2023-03-19T02:22:01.572Z,9.70
2023-03-19T02:28:04.019Z,9.50
2023-03-19T02:34:23.892Z,9.50
2023-03-19T02:40:33.329Z,9.50
2023-03-19T02:46:35.451Z,9.40
2023-03-19T02:52:38.879Z,9.20
2023-03-19T02:58:40.671Z,9.00
2023-03-19T03:04:42.820Z,8.80
2023-03-19T03:10:44.639Z,8.80
2023-03-19T03:16:46.783Z,9.00
2023-03-19T03:22:48.592Z,9.00
2023-03-19T03:28:50.742Z,9.00
2023-03-19T03:34:52.855Z,8.80
2023-03-19T03:41:04.843Z,8.70
2023-03-19T03:47:06.833Z,8.50
2023-03-19T03:53:17.863Z,8.60
2023-03-19T03:59:22.767Z,9.20
2023-03-19T04:05:24.587Z,9.50
2023-03-19T04:11:29.711Z,9.60
2023-03-19T04:17:31.987Z,9.80
2023-03-19T04:23:33.955Z,9.70
2023-03-19T04:29:35.801Z,9.90
2023-03-19T04:35:37.724Z,9.80
2023-03-19T04:41:40.156Z,9.60
2023-03-19T04:47:44.984Z,9.40
2023-03-19T05:00:28.686Z,9.00
2023-03-19T05:06:32.915Z,8.80
2023-03-19T05:12:35.637Z,8.30
2023-03-19T05:18:40.706Z,7.90
2023-03-19T05:24:43.027Z,7.90
2023-03-19T05:30:45.128Z,7.90
2023-03-19T05:36:47.218Z,7.90
2023-03-19T05:42:52.088Z,7.90
2023-03-19T05:48:58.724Z,7.90
2023-03-19T05:55:18.613Z,7.90
2023-03-19T06:01:24.591Z,8.00
2023-03-19T06:07:27.395Z,8.30
2023-03-19T06:13:32.627Z,8.60
2023-03-19T06:19:35.341Z,9.00
2023-03-19T06:25:37.957Z,9.20
2023-03-19T06:31:41.733Z,9.20
2023-03-19T06:37:43.917Z,9.40
2023-03-19T06:58:42.548Z,10.00
2023-03-19T07:04:44.642Z,10.10
2023-03-19T07:10:46.985Z,10.30
2023-03-19T07:16:49.000Z,10.50
2023-03-19T07:22:52.195Z,10.80
2023-03-19T07:28:54.139Z,11.00
2023-03-19T07:34:56.210Z,11.40
2023-03-19T07:41:02.368Z,12.00
2023-03-19T07:47:04.705Z,12.50
2023-03-19T07:53:06.578Z,12.60
2023-03-19T07:59:08.578Z,12.50
2023-03-19T08:05:11.094Z,12.70
2023-03-19T08:11:13.427Z,13.00
2023-03-19T08:17:15.200Z,13.10
2023-03-19T08:23:17.131Z,13.20
2023-03-19T08:29:19.293Z,13.40
2023-03-19T08:35:21.364Z,13.40
2023-03-19T08:41:26.244Z,13.20
2023-03-19T08:47:28.486Z,13.40
2023-03-19T08:53:32.126Z,13.40
2023-03-19T08:59:34.464Z,13.40
2023-03-19T09:05:36.342Z,13.50
2023-03-19T09:11:38.325Z,13.60
2023-03-19T09:17:40.439Z,13.60
2023-03-19T09:23:42.370Z,13.40
2023-03-19T09:29:44.141Z,13.80
2023-03-19T09:35:52.602Z,14.20
2023-03-19T09:42:06.018Z,14.30
2023-03-19T09:48:14.857Z,14.00
2023-03-19T09:54:27.481Z,13.80
2023-03-19T10:00:34.086Z,14.20
2023-03-19T10:06:40.232Z,14.60
2023-03-19T10:13:00.418Z,14.90
2023-03-19T10:19:05.824Z,14.80
2023-03-19T10:25:13.325Z,14.90
2023-03-19T10:31:30.464Z,14.80
2023-03-19T10:37:35.753Z,14.70
2023-03-19T10:43:39.731Z,14.60
2023-03-19T10:49:42.688Z,14.50
2023-03-19T10:55:53.661Z,14.50
2023-03-19T11:02:03.954Z,14.50
2023-03-19T11:08:25.736Z,14.90
2023-03-19T11:14:39.950Z,15.20
2023-03-19T11:20:42.363Z,15.40
2023-03-19T11:26:54.132Z,15.10
2023-03-19T11:33:12.732Z,14.80
2023-03-19T11:39:23.467Z,14.60
2023-03-19T11:45:46.028Z,14.70
2023-03-19T11:52:03.093Z,14.50
2023-03-19T11:58:29.700Z,14.20
2023-03-19T12:05:09.189Z,14.20
2023-03-19T12:11:17.917Z,14.10
2023-03-19T12:17:34.742Z,14.20
2023-03-19T12:23:58.971Z,14.10
2023-03-19T12:30:18.480Z,14.10
2023-03-19T12:36:25.654Z,14.40
2023-03-19T12:42:33.078Z,14.90
2023-03-19T12:49:14.312Z,14.90
2023-03-19T12:55:16.063Z,14.90
2023-03-19T13:01:26.096Z,15.00
2023-03-19T13:07:43.999Z,14.80
2023-03-19T13:13:51.575Z,14.90
2023-03-19T13:19:56.379Z,15.10
2023-03-19T13:26:00.285Z,14.90
2023-03-19T13:32:06.905Z,14.60
2023-03-19T13:38:22.658Z,14.70
2023-03-19T13:44:33.970Z,15.00
2023-03-19T13:50:55.603Z,15.50
2023-03-19T13:57:07.747Z,15.40
2023-03-19T14:03:27.540Z,15.80
2023-03-19T14:09:37.759Z,16.10
2023-03-19T14:15:47.910Z,15.10
2023-03-19T14:21:52.514Z,15.10
2023-03-19T14:28:01.050Z,15.10
2023-03-19T14:34:17.061Z,15.30
2023-03-19T14:40:26.075Z,14.90
2023-03-19T14:46:45.170Z,14.70
2023-03-19T14:53:08.310Z,14.70
2023-03-19T14:59:13.882Z,15.10
2023-03-19T15:05:33.204Z,15.10
2023-03-19T15:11:54.093Z,15.00
2023-03-19T15:18:04.296Z,14.90
2023-03-19T15:24:13.466Z,14.90
2023-03-19T15:30:24.845Z,14.70
2023-03-19T15:36:33.355Z,14.80
2023-03-19T15:42:35.747Z,14.60
2023-03-19T15:49:13.016Z,14.90
2023-03-19T15:55:16.420Z,14.90
2023-03-19T16:01:19.865Z,14.80
2023-03-19T16:07:28.995Z,14.70
2023-03-19T16:13:37.945Z,14.40
2023-03-19T16:19:56.053Z,13.90
2023-03-19T16:26:03.421Z,13.30
2023-03-19T16:32:29.711Z,12.90
2023-03-19T16:38:59.709Z,12.70
2023-03-19T16:45:20.382Z,12.20
2023-03-19T16:51:22.425Z,11.90
2023-03-19T16:57:24.608Z,11.50
2023-03-19T17:03:27.325Z,11.50
2023-03-19T17:09:29.195Z,11.50
2023-03-19T17:15:37.563Z,11.40
2023-03-19T17:21:39.592Z,11.40
2023-03-19T17:27:42.054Z,11.20
2023-03-19T17:33:43.995Z,11.20
2023-03-19T17:39:46.258Z,11.10
2023-03-19T17:45:49.348Z,11.00
2023-03-19T17:51:52.351Z,11.00
2023-03-19T17:57:54.935Z,10.90
2023-03-19T18:03:58.269Z,10.80
2023-03-19T18:10:00.177Z,10.70
2023-03-19T18:16:03.359Z,10.60
2023-03-19T18:22:14.845Z,10.50
2023-03-19T18:28:16.653Z,10.40
2023-03-19T18:34:18.795Z,10.40
2023-03-19T18:40:24.206Z,10.40
2023-03-19T18:46:31.436Z,10.50
2023-03-19T18:52:33.528Z,10.40
2023-03-19T18:58:38.033Z,10.40
2023-03-19T19:04:40.122Z,10.50
2023-03-19T19:10:45.908Z,10.50
2023-03-19T19:16:48.211Z,10.60
2023-03-19T19:22:51.793Z,10.60
2023-03-19T19:28:57.868Z,10.70
2023-03-19T19:34:59.811Z,10.70
2023-03-19T19:41:01.716Z,10.80
2023-03-19T19:47:13.288Z,10.70
2023-03-19T19:53:16.405Z,10.80
2023-03-19T19:59:22.617Z,10.70
2023-03-19T20:05:31.166Z,10.70
2023-03-19T20:11:33.064Z,10.70
2023-03-19T20:17:34.808Z,10.80
2023-03-19T20:23:36.776Z,10.80
2023-03-19T20:29:40.038Z,10.80
2023-03-19T20:35:42.270Z,10.80
2023-03-19T20:41:45.560Z,10.80
2023-03-19T20:47:48.573Z,10.80
2023-03-19T20:53:52.074Z,10.80
2023-03-19T20:59:54.250Z,10.70
2023-03-19T21:06:02.053Z,10.80
2023-03-19T21:12:09.583Z,10.80
2023-03-19T21:18:11.581Z,10.80
2023-03-19T21:24:21.055Z,11.00
2023-03-19T21:30:23.124Z,11.00
2023-03-19T21:36:25.083Z,11.00
2023-03-19T21:42:27.696Z,10.80
2023-03-19T21:48:30.557Z,10.80
2023-03-19T21:54:32.482Z,10.70
2023-03-19T22:00:34.454Z,10.60
2023-03-19T22:06:37.005Z,10.50
2023-03-19T22:12:45.169Z,10.40
2023-03-19T22:18:47.994Z,10.50
2023-03-19T22:24:50.060Z,10.50
2023-03-19T22:30:52.004Z,10.50
2023-03-19T22:36:54.913Z,10.30
2023-03-19T22:42:56.792Z,10.20
2023-03-19T22:48:58.685Z,10.10
2023-03-19T22:55:00.437Z,10.10
2023-03-19T23:01:02.331Z,10.00
2023-03-19T23:07:04.316Z,9.90
2023-03-19T23:13:06.168Z,9.80
2023-03-19T23:19:32.021Z,9.60
2023-03-19T23:25:34.107Z,9.40
2023-03-19T23:31:36.782Z,9.20
2023-03-19T23:37:39.316Z,9.10
2023-03-19T23:43:41.612Z,9.00
2023-03-19T23:49:43.437Z,9.00
2023-03-19T23:55:47.168Z,8.90
